Time;durP1;ratioP1;P1;durP2;ratioP2;P2;SDS_P1;SDS_P2;PMS_P1;PMS_P2;Temp;Humidity;BMP_temperature;BMP_pressure;BME280_temperature;BME280_humidity;BME280_pressure;Samples;Min_cycle;Max_cycle;Signal;HPM_P1;HPM_P2
2022/08/21 00:00:39;;;;;;;30.90;11.10;;;18.60;74.20;;;14.56;100.00;95760.69;4972943;28;20096;-48
2022/08/21 00:03:10;;;;;;;31.73;9.80;;;18.60;74.40;;;14.56;100.00;95756.13;4924385;28;20022;-48
2022/08/21 00:05:56;;;;;;;21.80;8.95;;;18.50;74.40;;;14.54;100.00;95754.81;4960183;28;20114;-50
2022/08/21 00:08:22;;;;;;;26.27;9.95;;;18.50;74.30;;;14.49;100.00;95752.19;4955831;28;20026;-47
2022/08/21 00:10:57;;;;;;;25.02;10.40;;;18.50;74.20;;;14.42;100.00;95752.53;4972701;28;20029;-50
2022/08/21 00:13:23;;;;;;;34.00;11.57;;;18.50;74.40;;;14.40;100.00;95751.19;4954839;28;20506;-50
2022/08/21 00:15:50;;;;;;;37.28;12.35;;;18.40;74.30;;;14.38;100.00;95748.78;4953625;28;20023;-48
2022/08/21 00:18:19;;;;;;;33.78;12.38;;;18.30;74.30;;;14.34;100.00;95745.09;4947416;28;20057;-46
2022/08/21 00:20:48;;;;;;;28.02;11.70;;;18.30;74.40;;;14.33;100.00;95746.97;4939717;28;20042;-52
2022/08/21 00:23:15;;;;;;;30.55;11.93;;;18.40;74.70;;;14.33;100.00;95746.97;4973017;28;20405;-49
2022/08/21 00:25:45;;;;;;;28.55;10.90;;;18.30;74.60;;;14.30;100.00;95744.06;4955294;28;20022;-51
2022/08/21 00:28:13;;;;;;;35.58;12.35;;;18.30;74.70;;;14.26;100.00;95749.19;4972831;28;20034;-52
2022/08/21 00:30:43;;;;;;;41.60;11.98;;;18.30;74.70;;;14.28;100.00;95751.59;4972467;28;20022;-48
2022/08/21 00:33:11;;;;;;;40.78;12.05;;;18.30;74.70;;;14.22;100.00;95745.47;4955524;28;20029;-48
2022/08/21 00:35:42;;;;;;;24.83;10.60;;;18.20;74.60;;;14.19;100.00;95750.59;4955437;28;20030;-51
2022/08/21 00:38:09;;;;;;;33.63;12.65;;;18.30;74.70;;;14.17;100.00;95744.75;4955233;28;20109;-47
2022/08/21 00:40:50;;;;;;;29.70;11.20;;;18.20;74.60;;;14.15;100.00;95744.22;4972041;28;20029;-47
2022/08/21 00:43:28;;;;;;;23.92;11.18;;;18.30;74.90;;;14.15;100.00;95747.69;4972518;28;20037;-49
2022/08/21 00:45:57;;;;;;;30.17;10.50;;;18.20;74.90;;;14.19;100.00;95743.34;4955051;28;20054;-49
2022/08/21 00:48:26;;;;;;;30.63;10.98;;;18.20;74.80;;;14.20;100.00;95757.56;4955349;28;20498;-48
2022/08/21 00:51:13;;;;;;;37.40;11.65;;;18.20;74.80;;;14.20;100.00;95754.91;4954820;28;20048;-50
2022/08/21 00:53:44;;;;;;;30.50;10.48;;;18.20;75.00;;;14.20;100.00;95753.00;4954982;28;20060;-51
2022/08/21 00:56:13;;;;;;;31.52;11.57;;;18.20;75.00;;;14.22;100.00;95755.41;4955371;28;20037;-50
2022/08/21 00:58:47;;;;;;;26.65;10.27;;;18.20;74.90;;;14.22;100.00;95745.47;4954237;28;20445;-47
2022/08/21 01:01:16;;;;;;;34.80;11.57;;;18.20;75.00;;;14.22;100.00;95750.84;4954553;28;20052;-52
2022/08/21 01:03:46;;;;;;;27.48;10.60;;;18.20;75.70;;;14.23;100.00;95747.09;4972117;28;20129;-48
2022/08/21 01:06:16;;;;;;;33.28;11.73;;;18.30;75.10;;;14.27;100.00;95742.75;4932968;28;20027;-49
2022/08/21 01:08:52;;;;;;;27.95;10.05;;;18.30;75.10;;;14.29;100.00;95742.44;4958519;28;20038;-47
2022/08/21 01:11:27;;;;;;;35.25;13.52;;;18.30;75.10;;;14.29;100.00;95739.78;4953019;28;20028;-49
2022/08/21 01:13:54;;;;;;;25.13;10.63;;;18.30;75.10;;;14.30;100.00;95738.72;4952693;28;20460;-47
2022/08/21 01:16:24;;;;;;;21.30;10.30;;;18.30;75.00;;;14.35;100.00;95741.31;4932721;29;20446;-47
2022/08/21 01:18:56;;;;;;;25.25;9.77;;;18.30;75.10;;;14.36;100.00;95745.63;4932713;29;20027;-47
2022/08/21 01:21:27;;;;;;;21.50;9.03;;;18.30;75.10;;;14.32;100.00;95737.34;4952376;28;20048;-47
2022/08/21 01:23:59;;;;;;;20.10;8.45;;;18.30;75.70;;;14.29;100.00;95737.91;4932333;29;20023;-47
2022/08/21 01:26:34;;;;;;;18.13;8.15;;;18.30;74.90;;;14.25;100.00;95730.72;4945543;28;20057;-51
2022/08/21 01:29:43;;;;;;;22.48;9.55;;;18.30;74.70;;;14.19;100.00;95735.31;4932101;29;20027;-47
2022/08/21 01:32:20;;;;;;;22.67;9.32;;;18.30;74.70;;;14.15;100.00;95720.91;4944493;28;20034;-47
2022/08/21 01:34:50;;;;;;;25.17;10.77;;;18.20;74.70;;;14.12;100.00;95724.16;4954596;28;20370;-47
2022/08/21 01:37:18;;;;;;;22.70;10.30;;;18.20;74.80;;;14.11;100.00;95719.88;4971519;28;20766;-47
2022/08/21 01:39:51;;;;;;;29.08;9.98;;;18.20;74.90;;;14.08;100.00;95712.41;4971681;28;20408;-47
2022/08/21 01:42:17;;;;;;;22.33;9.57;;;18.10;74.90;;;14.05;100.00;95716.44;4954121;28;20386;-49
2022/08/21 01:44:43;;;;;;;23.55;10.60;;;18.10;74.80;;;14.03;100.00;95712.44;4971609;28;20405;-47
2022/08/21 01:47:14;;;;;;;23.15;9.98;;;18.10;74.90;;;14.00;100.00;95708.47;4971765;28;20438;-47
2022/08/21 01:49:42;;;;;;;24.83;9.52;;;18.00;74.90;;;13.98;100.00;95710.63;4954469;28;20033;-49
2022/08/21 01:52:11;;;;;;;22.50;9.57;;;18.00;74.90;;;13.93;100.00;95697.28;4971172;28;20019;-47
2022/08/21 01:54:42;;;;;;;28.17;10.05;;;18.00;75.00;;;13.89;100.00;95697.06;4954646;28;20034;-48
2022/08/21 01:57:13;;;;;;;21.95;10.02;;;18.00;75.00;;;13.86;100.00;95702.97;4970486;28;20030;-48
2022/08/21 01:59:40;;;;;;;27.55;10.18;;;17.90;75.10;;;13.84;100.00;95694.41;4969761;28;20045;-48
2022/08/21 02:02:05;;;;;;;20.75;10.15;;;17.90;75.00;;;13.81;100.00;95692.31;4994792;28;20072;-48
2022/08/21 02:04:37;;;;;;;22.08;9.20;;;17.90;75.10;;;13.80;100.00;95696.06;4972020;28;20370;-47
2022/08/21 02:07:04;;;;;;;20.15;8.98;;;17.90;75.10;;;13.78;100.00;95689.41;4954904;28;20504;-47
2022/08/21 02:09:42;;;;;;;29.95;9.80;;;17.90;75.00;;;13.72;100.00;95690.53;4968101;28;20048;-46
2022/08/21 02:12:12;;;;;;;24.05;9.23;;;17.80;75.00;;;13.67;100.00;95677.19;4967094;28;20022;-50
2022/08/21 02:14:41;;;;;;;23.80;9.57;;;17.80;74.90;;;13.62;100.00;95681.50;4957978;28;20034;-48
2022/08/21 02:17:07;;;;;;;19.55;8.50;;;17.70;75.00;;;13.60;100.00;95682.84;4975359;28;20030;-49
2022/08/21 02:19:33;;;;;;;24.73;9.23;;;17.70;75.00;;;13.57;100.00;95678.88;4957741;28;20033;-47
2022/08/21 02:21:58;;;;;;;21.55;7.70;;;17.70;75.00;;;13.54;100.00;95684.00;4957484;28;20022;-47
2022/08/21 02:24:27;;;;;;;23.45;7.93;;;17.70;75.00;;;13.51;100.00;95685.34;4974959;28;20044;-48
2022/08/21 02:26:56;;;;;;;20.13;6.97;;;17.70;75.00;;;13.48;100.00;95679.78;4957088;28;20465;-50
2022/08/21 02:29:24;;;;;;;20.38;8.20;;;17.60;75.00;;;13.44;100.00;95682.19;4957433;28;20030;-47
2022/08/21 02:31:50;;;;;;;19.27;7.53;;;17.60;75.10;;;13.46;100.00;95673.88;4957284;28;20018;-47
2022/08/21 02:34:19;;;;;;;17.98;6.82;;;17.60;75.20;;;13.42;100.00;95677.13;4957708;28;20508;-46
2022/08/21 02:36:49;;;;;;;18.67;7.40;;;17.60;75.30;;;13.40;100.00;95678.47;4974787;28;20129;-49
2022/08/21 02:39:14;;;;;;;15.70;6.88;;;17.50;75.20;;;13.38;100.00;95681.44;4974797;28;20389;-48
2022/08/21 02:41:43;;;;;;;16.85;6.45;;;17.50;75.20;;;13.36;100.00;95678.25;4974173;28;20032;-49
2022/08/21 02:44:09;;;;;;;14.40;6.28;;;17.50;75.20;;;13.35;100.00;95675.81;4958298;28;20540;-47
2022/08/21 02:46:35;;;;;;;16.70;6.55;;;17.50;75.20;;;13.36;100.00;95680.91;4954098;28;20258;-47
2022/08/21 02:49:10;;;;;;;11.90;5.47;;;17.50;75.20;;;13.33;100.00;95672.66;4965480;28;20048;-47
2022/08/21 02:51:41;;;;;;;16.77;6.47;;;17.50;75.00;;;13.29;100.00;95679.66;4974230;28;20018;-47
2022/08/21 02:54:10;;;;;;;15.48;6.43;;;17.50;75.20;;;13.24;100.00;95679.66;4954000;28;20042;-47
2022/08/21 02:56:42;;;;;;;12.88;6.00;;;17.50;75.20;;;13.22;100.00;95673.75;4961763;28;20053;-49
2022/08/21 02:59:11;;;;;;;15.40;5.75;;;17.40;75.20;;;13.24;100.00;95676.97;4966758;28;20038;-47
2022/08/21 03:01:39;;;;;;;17.27;6.03;;;17.40;75.20;;;13.23;100.00;95670.03;4937617;28;20105;-49
2022/08/21 03:04:08;;;;;;;16.50;5.03;;;17.40;75.90;;;13.19;100.00;95670.59;4954849;28;20081;-47
2022/08/21 03:06:34;;;;;;;13.63;5.22;;;17.40;75.10;;;13.15;100.00;95676.75;4954852;28;20026;-47
2022/08/21 03:09:15;;;;;;;13.80;5.18;;;17.30;74.90;;;13.06;100.00;95671.19;4955006;28;20031;-47
2022/08/21 03:11:41;;;;;;;14.98;5.93;;;17.30;75.00;;;13.05;100.00;95672.28;4954599;28;20086;-47
2022/08/21 03:14:10;;;;;;;14.10;6.07;;;17.20;74.90;;;13.02;100.00;95674.72;4951879;28;20507;-47
2022/08/21 03:16:36;;;;;;;13.65;5.78;;;17.20;75.00;;;12.97;100.00;95672.84;4955014;28;20188;-47
2022/08/21 03:19:03;;;;;;;20.30;5.32;;;17.10;74.90;;;12.94;100.00;95670.72;4954366;28;20109;-48
2022/08/21 03:21:32;;;;;;;12.93;5.93;;;17.10;74.90;;;12.90;100.00;95669.69;4954464;28;20162;-47
2022/08/21 03:24:08;;;;;;;15.27;5.85;;;17.10;75.00;;;12.85;100.00;95673.22;4937606;28;20030;-47
2022/08/21 03:26:42;;;;;;;11.38;5.25;;;17.00;75.20;;;12.82;100.00;95683.66;4955041;28;20026;-48
2022/08/21 03:29:11;;;;;;;11.35;5.70;;;17.00;75.00;;;12.81;100.00;95682.03;4954093;28;20031;-49
2022/08/21 03:31:40;;;;;;;9.52;5.25;;;17.00;75.20;;;12.79;100.00;95677.00;4952650;28;20036;-47
2022/08/21 03:34:05;;;;;;;13.30;5.22;;;17.00;75.10;;;12.76;100.00;95682.88;4954337;28;20463;-48
2022/08/21 03:36:31;;;;;;;10.88;4.70;;;16.90;75.10;;;12.70;100.00;95676.75;4937394;28;20101;-47
2022/08/21 03:38:57;;;;;;;11.80;4.80;;;16.90;75.10;;;12.70;100.00;95678.63;4934175;29;20031;-47
2022/08/21 03:41:26;;;;;;;10.88;4.38;;;16.90;75.10;;;12.70;100.00;95675.97;4930106;28;20034;-48
2022/08/21 03:43:52;;;;;;;9.57;4.40;;;16.90;75.20;;;12.67;100.00;95679.97;4937224;28;20034;-47
2022/08/21 03:46:27;;;;;;;10.98;4.32;;;16.90;75.10;;;12.68;100.00;95670.88;4954113;28;20022;-47
2022/08/21 03:48:53;;;;;;;18.65;4.90;;;16.80;75.20;;;12.69;100.00;95669.00;4937049;28;20031;-47
2022/08/21 03:51:22;;;;;;;14.27;4.53;;;16.80;75.20;;;12.66;100.00;95672.22;4954019;28;20105;-47
2022/08/21 03:53:54;;;;;;;10.68;4.65;;;16.80;75.20;;;12.62;100.00;95673.84;4921377;28;20101;-47
2022/08/21 03:56:20;;;;;;;14.17;5.10;;;16.80;75.10;;;12.57;100.00;95663.22;4954103;28;20027;-47
2022/08/21 03:58:48;;;;;;;12.00;5.50;;;16.80;75.10;;;12.54;100.00;95671.78;4948070;28;20300;-47
2022/08/21 04:01:20;;;;;;;21.63;5.78;;;16.70;75.10;;;12.53;100.00;95672.81;4971433;28;20046;-47
2022/08/21 04:03:46;;;;;;;17.08;6.50;;;16.70;75.20;;;12.53;100.00;95670.94;4972130;28;20113;-47
2022/08/21 04:06:15;;;;;;;16.98;6.65;;;16.70;75.30;;;12.56;100.00;95673.06;4954648;28;20026;-47
2022/08/21 04:08:42;;;;;;;18.45;6.32;;;16.80;75.50;;;12.59;100.00;95675.19;4936772;28;20053;-51
2022/08/21 04:11:11;;;;;;;16.23;5.75;;;16.80;75.60;;;12.59;100.00;95675.19;4933105;29;20489;-48
2022/08/21 04:13:38;;;;;;;16.20;6.30;;;16.80;75.60;;;12.62;100.00;95676.53;4953779;28;20141;-47
2022/08/21 04:16:05;;;;;;;16.30;6.40;;;16.80;75.50;;;12.60;100.00;95674.16;4920429;28;20109;-47
2022/08/21 04:18:31;;;;;;;17.00;6.75;;;16.80;75.60;;;12.63;100.00;95672.78;4917852;28;20634;-47
2022/08/21 04:21:01;;;;;;;19.02;6.43;;;16.80;75.60;;;12.64;100.00;95677.06;4952819;28;20106;-49
2022/08/21 04:23:27;;;;;;;16.45;5.03;;;16.80;75.60;;;12.59;100.00;95680.53;4936666;28;20393;-48
2022/08/21 04:25:56;;;;;;;14.75;6.63;;;16.80;75.40;;;12.58;100.00;95678.16;4917355;29;20479;-48
2022/08/21 04:28:27;;;;;;;34.95;8.02;;;16.80;75.60;;;12.65;100.00;95676.78;4948421;28;20022;-47
2022/08/21 04:30:55;;;;;;;22.20;6.97;;;16.80;75.70;;;12.72;100.00;95674.63;4932745;29;20038;-46
2022/08/21 04:33:22;;;;;;;29.83;7.68;;;16.80;75.80;;;12.75;100.00;95678.59;4946503;28;20479;-47
2022/08/21 04:35:52;;;;;;;87.82;9.95;;;16.90;75.80;;;12.77;100.00;95683.69;4936070;28;20033;-47
2022/08/21 04:38:22;;;;;;;41.15;8.77;;;16.90;75.80;;;12.78;100.00;95685.28;4935875;28;20462;-48
2022/08/21 04:40:51;;;;;;;25.92;7.63;;;16.90;75.90;;;12.79;100.00;95687.69;4932427;29;20070;-47
2022/08/21 04:43:30;;;;;;;30.10;7.68;;;16.90;75.80;;;12.82;100.00;95689.00;4965421;28;20022;-47
2022/08/21 04:46:01;;;;;;;23.38;7.20;;;17.00;75.90;;;12.82;100.00;95692.47;4955447;28;20366;-46
2022/08/21 04:48:27;;;;;;;24.75;8.20;;;17.00;75.80;;;12.81;100.00;95692.72;4954916;28;20132;-45
2022/08/21 04:51:29;;;;;;;32.55;8.88;;;17.00;75.70;;;12.85;100.00;95696.44;4954614;28;20114;-47
2022/08/21 04:54:08;;;;;;;24.10;7.85;;;17.10;75.90;;;12.88;100.00;95687.88;4955838;28;20026;-47
2022/08/21 04:56:51;;;;;;;22.73;7.40;;;17.10;76.00;;;12.92;100.00;95694.28;4955913;28;20105;-51
2022/08/21 04:59:42;;;;;;;18.63;7.03;;;17.20;75.70;;;12.92;100.00;95689.75;4968288;23;20512;-47
2022/08/21 05:02:13;;;;;;;15.43;6.05;;;17.20;75.60;;;12.95;100.00;95696.41;4931380;28;20489;-53
2022/08/21 05:04:55;;;;;;;16.83;6.18;;;17.20;75.40;;;12.98;100.00;95695.06;4949208;28;20030;-56
2022/08/21 05:07:32;;;;;;;18.00;6.67;;;17.20;75.50;;;13.02;100.00;95699.56;4934036;28;20392;-50
2022/08/21 05:10:03;;;;;;;13.95;6.03;;;17.20;75.40;;;13.05;100.00;95693.66;4948408;28;20034;-46
2022/08/21 05:12:37;;;;;;;14.80;6.53;;;17.20;75.40;;;13.09;100.00;95696.59;4954881;28;20611;-52
2022/08/21 05:15:06;;;;;;;16.05;6.10;;;17.30;75.40;;;13.16;100.00;95697.06;4965378;28;20547;-46
2022/08/21 05:17:37;;;;;;;14.27;5.65;;;17.40;75.50;;;13.20;100.00;95696.25;4965711;28;20448;-47
2022/08/21 05:20:04;;;;;;;15.48;6.75;;;17.40;75.40;;;13.28;100.00;95700.22;4939594;28;20044;-48
2022/08/21 05:22:32;;;;;;;15.70;6.03;;;17.40;75.40;;;13.30;100.00;95700.75;4968073;28;20060;-46
2022/08/21 05:25:02;;;;;;;12.32;5.90;;;17.40;75.50;;;13.35;100.00;95703.41;4937603;28;20033;-46
2022/08/21 05:27:34;;;;;;;34.28;8.50;;;17.50;75.60;;;13.42;100.00;95700.41;4954244;28;20022;-46
2022/08/21 05:30:02;;;;;;;152.20;11.03;;;17.60;75.90;;;13.53;100.00;95707.25;4953864;28;20041;-46
2022/08/21 05:32:28;;;;;;;159.90;10.30;;;17.70;76.00;;;13.62;100.00;95707.47;4937518;28;20434;-46
2022/08/21 05:34:57;;;;;;;176.00;11.23;;;17.80;76.10;;;13.68;100.00;95710.91;4937430;28;20073;-48
2022/08/21 05:37:34;;;;;;;104.65;10.48;;;17.90;76.20;;;13.74;100.00;95707.91;4954307;28;20030;-46
2022/08/21 05:40:01;;;;;;;92.95;10.15;;;17.90;76.20;;;13.83;100.00;95708.91;4926233;29;20139;-47
2022/08/21 05:42:27;;;;;;;55.97;9.13;;;18.00;76.10;;;13.94;100.00;95706.91;4968575;28;20026;-46
2022/08/21 05:44:53;;;;;;;74.07;8.65;;;18.20;76.20;;;14.03;100.00;95704.41;4953533;28;20404;-47
2022/08/21 05:47:19;;;;;;;92.75;9.88;;;18.30;76.20;;;14.14;100.00;95713.97;4917612;28;22392;-50
2022/08/21 05:49:45;;;;;;;78.93;10.10;;;18.40;76.10;;;14.29;100.00;95711.13;4953893;28;20038;-46
2022/08/21 05:52:11;;;;;;;88.57;10.25;;;18.50;76.10;;;14.44;100.00;95715.50;4971551;28;20385;-50
2022/08/21 05:54:43;;;;;;;125.22;12.10;;;18.70;76.00;;;14.55;100.00;95714.34;4954248;28;20026;-47
2022/08/21 05:57:08;;;;;;;108.38;13.07;;;18.90;76.20;;;14.65;100.00;95715.31;4971497;28;20033;-47
2022/08/21 05:59:34;;;;;;;89.03;13.32;;;19.00;75.80;;;14.74;100.00;95703.66;4970940;28;20038;-50
2022/08/21 06:02:02;;;;;;;76.78;12.48;;;19.20;75.80;;;14.81;100.00;95704.09;4953973;28;20795;-48
2022/08/21 06:04:28;;;;;;;102.22;13.88;;;19.30;75.60;;;14.88;100.00;95717.13;4971260;28;20033;-48
2022/08/21 06:06:54;;;;;;;89.68;14.25;;;19.50;75.30;;;15.00;100.00;95704.09;4947472;29;20030;-46
2022/08/21 06:09:22;;;;;;;75.40;13.30;;;19.70;75.10;;;15.14;100.00;95714.13;4954865;28;20045;-49
2022/08/21 06:11:48;;;;;;;60.65;14.00;;;19.80;74.90;;;15.27;100.00;95718.78;4969760;28;20076;-49
2022/08/21 06:14:16;;;;;;;64.25;12.88;;;20.00;74.70;;;15.34;100.00;95721.09;4944475;29;20034;-45
2022/08/21 06:16:42;;;;;;;56.92;11.27;;;20.20;74.40;;;15.40;100.00;95718.03;4940627;28;20022;-49
2022/08/21 06:19:08;;;;;;;56.70;10.45;;;20.30;74.10;;;15.45;100.00;95717.16;4954002;28;20484;-46
2022/08/21 06:21:34;;;;;;;43.05;11.23;;;20.40;73.80;;;15.58;100.00;95716.44;4953779;28;20050;-48
2022/08/21 06:24:06;;;;;;;52.92;9.25;;;20.50;73.60;;;15.46;100.00;95705.34;4953728;28;20028;-47
2022/08/21 06:26:33;;;;;;;50.90;9.13;;;20.60;73.30;;;15.52;100.00;95711.44;4937010;28;20559;-48
2022/08/21 06:29:10;;;;;;;49.05;9.05;;;20.60;73.20;;;15.60;100.00;95703.47;4953595;28;20038;-46
2022/08/21 06:31:36;;;;;;;41.47;9.27;;;20.60;73.10;;;15.73;100.00;95710.84;4954318;28;20389;-46
2022/08/21 06:34:05;;;;;;;34.33;8.27;;;20.70;73.10;;;15.82;100.00;95712.84;4954034;28;20026;-46
2022/08/21 06:36:33;;;;;;;33.72;8.70;;;20.80;73.10;;;15.86;100.00;95705.81;4970497;28;20242;-46
2022/08/21 06:38:59;;;;;;;28.58;8.20;;;20.80;72.90;;;15.95;100.00;95712.88;4953469;28;20481;-47
2022/08/21 06:41:27;;;;;;;27.65;8.60;;;20.90;72.80;;;16.03;100.00;95708.72;4928400;29;20385;-46
2022/08/21 06:43:55;;;;;;;26.30;7.70;;;21.10;72.70;;;16.18;100.00;95710.34;4951217;28;20026;-49
2022/08/21 06:46:24;;;;;;;19.60;7.18;;;21.20;72.60;;;16.27;100.00;95719.31;4956983;28;20026;-48
2022/08/21 06:48:50;;;;;;;20.05;7.53;;;21.40;72.30;;;16.27;100.00;95708.56;4957336;28;20041;-46
2022/08/21 06:51:19;;;;;;;18.55;7.63;;;21.60;71.90;;;16.34;100.00;95717.03;4957236;28;20030;-48
2022/08/21 06:53:49;;;;;;;19.30;7.63;;;21.80;71.60;;;16.43;100.00;95717.13;4956952;28;20065;-49
2022/08/21 06:56:15;;;;;;;18.35;7.70;;;21.90;71.20;;;16.42;99.69;95713.66;4973659;28;20022;-47
2022/08/21 06:59:00;;;;;;;21.40;8.13;;;22.00;71.00;;;16.60;99.78;95713.84;4968177;28;20401;-47
2022/08/21 07:01:29;;;;;;;21.50;7.75;;;22.20;70.90;;;16.67;98.97;95706.16;4939229;28;20092;-46
2022/08/21 07:03:55;;;;;;;18.60;7.90;;;22.30;70.50;;;16.85;99.00;95705.28;4974184;28;20030;-46
2022/08/21 07:06:23;;;;;;;22.48;8.25;;;22.50;70.30;;;16.99;97.79;95707.16;4938640;28;20117;-49
2022/08/21 07:08:49;;;;;;;17.02;7.63;;;22.70;70.10;;;17.09;97.11;95713.13;4963733;28;20060;-50
2022/08/21 07:11:24;;;;;;;14.35;7.30;;;22.90;69.80;;;17.44;97.26;95716.09;4972778;28;20057;-50
2022/08/21 07:13:53;;;;;;;11.13;6.45;;;23.20;69.50;;;17.69;96.84;95714.69;4927390;28;20026;-48
2022/08/21 07:16:20;;;;;;;10.90;6.60;;;23.40;69.30;;;17.85;95.28;95709.75;4970328;28;20037;-47
2022/08/21 07:18:46;;;;;;;8.40;5.68;;;23.70;69.00;;;17.99;93.92;95710.50;4974178;28;20496;-46
2022/08/21 07:21:12;;;;;;;7.22;5.18;;;23.80;68.70;;;18.27;93.01;95719.22;4956800;28;20037;-47
2022/08/21 07:23:48;;;;;;;5.85;4.90;;;24.10;68.40;;;18.44;89.17;95705.00;4956786;28;20030;-46
2022/08/21 07:26:21;;;;;;;6.00;4.50;;;24.50;67.90;;;18.64;87.67;95711.72;4973299;28;20084;-46
2022/08/21 07:28:50;;;;;;;6.60;4.40;;;24.80;67.20;;;18.36;86.59;95713.03;4948487;28;20027;-48
2022/08/21 07:31:21;;;;;;;5.50;4.88;;;24.80;66.40;;;18.53;85.40;95715.03;4933269;28;20492;-46
2022/08/21 07:33:47;;;;;;;5.70;4.85;;;24.90;66.00;;;18.84;84.89;95713.09;4948777;28;20042;-46
2022/08/21 07:36:17;;;;;;;5.28;4.57;;;25.10;65.80;;;19.12;83.56;95712.84;4924242;28;20125;-47
2022/08/21 07:38:46;;;;;;;4.97;4.50;;;25.40;65.10;;;19.21;80.90;95712.81;4934520;28;20441;-46
2022/08/21 07:41:25;;;;;;;4.78;4.20;;;25.70;64.70;;;19.35;79.76;95713.50;4973457;28;20130;-47
2022/08/21 07:43:59;;;;;;;4.60;4.20;;;25.70;64.70;;;19.38;78.90;95710.16;4973263;28;20033;-47
2022/08/21 07:46:32;;;;;;;4.55;4.15;;;25.80;63.20;;;19.63;78.41;95709.34;4956149;28;20030;-49
2022/08/21 07:49:00;;;;;;;5.60;4.22;;;25.90;62.30;;;19.85;77.75;95710.31;4956071;28;20033;-46
2022/08/21 07:51:29;;;;;;;4.47;4.07;;;26.10;61.90;;;20.14;76.33;95709.63;4956550;28;20037;-46
2022/08/21 07:54:01;;;;;;;4.07;3.67;;;26.40;61.20;;;20.52;74.56;95714.28;4972994;28;20041;-54
2022/08/21 07:56:33;;;;;;;4.20;3.90;;;26.60;60.20;;;20.94;72.87;95712.50;4972391;28;20026;-51
2022/08/21 07:59:05;;;;;;;3.42;3.13;;;27.00;59.60;;;21.26;71.38;95710.22;4956029;28;20064;-49
2022/08/21 08:01:31;;;;;;;3.92;3.50;;;27.30;58.90;;;21.52;70.00;95703.84;4954937;28;20109;-49
2022/08/21 08:03:57;;;;;;;3.50;3.20;;;27.60;58.50;;;21.67;68.83;95706.72;4968265;28;20104;-54
2022/08/21 08:06:25;;;;;;;3.60;3.30;;;27.80;57.60;;;22.04;68.57;95704.16;4959767;28;20050;-49
2022/08/21 08:08:52;;;;;;;3.45;3.03;;;28.10;56.90;;;22.44;67.57;95700.88;4933319;28;20027;-49
2022/08/21 08:11:18;;;;;;;3.60;3.30;;;28.30;56.70;;;22.70;66.99;95713.34;4964018;28;20018;-49
2022/08/21 08:13:51;;;;;;;4.25;3.08;;;28.60;56.10;;;22.85;65.58;95705.31;4967073;28;20026;-51
2022/08/21 08:16:20;;;;;;;2.50;2.30;;;28.90;55.50;;;23.20;64.80;95702.13;4936322;28;20029;-51
2022/08/21 08:18:46;;;;;;;3.10;2.72;;;29.20;54.80;;;23.46;64.97;95699.00;4936809;28;20081;-50
2022/08/21 08:21:14;;;;;;;3.42;3.13;;;29.50;54.60;;;23.76;64.29;95696.78;4915650;28;20029;-51
2022/08/21 08:23:40;;;;;;;2.97;2.78;;;29.80;54.10;;;23.99;62.29;95701.66;4920917;28;20489;-48
2022/08/21 08:26:06;;;;;;;3.28;2.92;;;30.00;53.30;;;24.00;62.45;95695.06;4952877;28;20026;-50
2022/08/21 08:28:33;;;;;;;3.00;2.58;;;30.30;52.80;;;24.22;61.87;95710.03;4972671;28;20469;-52
2022/08/21 08:31:01;;;;;;;3.47;3.20;;;30.50;52.20;;;24.28;61.93;95708.66;4955606;28;20058;-51
2022/08/21 08:33:47;;;;;;;4.25;3.53;;;30.70;51.40;;;24.38;61.77;95697.25;4972822;28;20121;-48
2022/08/21 08:36:31;;;;;;;4.00;3.70;;;30.80;51.20;;;24.62;60.23;95693.59;4971104;28;20032;-48
2022/08/21 08:39:03;;;;;;;3.83;3.53;;;31.00;50.50;;;24.70;60.17;95686.41;4947671;28;20054;-47
2022/08/21 08:41:32;;;;;;;3.28;2.90;;;31.20;50.00;;;24.83;58.65;95695.25;4955844;28;20030;-47
2022/08/21 08:44:07;;;;;;;3.45;3.15;;;31.30;49.30;;;25.26;59.01;95691.59;4955048;28;20026;-47
2022/08/21 08:46:48;;;;;;;4.88;3.90;;;31.50;49.20;;;25.55;57.68;95692.19;4938625;28;20022;-52
2022/08/21 08:49:37;;;;;;;4.60;3.75;;;31.70;49.10;;;25.37;56.81;95686.38;4939165;28;20061;-50
2022/08/21 08:52:31;;;;;;;4.03;3.70;;;31.80;49.30;;;25.42;56.74;95696.22;4944965;28;20049;-48
2022/08/21 08:55:28;;;;;;;8.23;3.90;;;31.90;48.10;;;25.77;56.28;95685.25;4971663;28;20030;-47
2022/08/21 08:57:56;;;;;;;3.30;3.03;;;32.00;47.90;;;26.21;55.85;95688.44;4947744;28;20026;-47
2022/08/21 09:00:24;;;;;;;5.07;3.38;;;32.20;47.60;;;26.41;54.52;95675.50;4938335;28;20049;-47
2022/08/21 09:02:58;;;;;;;3.42;3.22;;;32.40;47.10;;;26.56;53.66;95678.53;4912062;28;20403;-49
2022/08/21 09:05:49;;;;;;;3.80;3.50;;;32.50;46.50;;;26.36;53.53;95678.56;4940864;28;20029;-49
2022/08/21 09:08:54;;;;;;;3.95;3.13;;;32.60;46.20;;;26.65;53.92;95681.78;4940171;28;20026;-48
2022/08/21 09:11:59;;;;;;;3.85;3.50;;;32.80;45.90;;;26.77;52.63;95670.69;4971766;28;20026;-51
2022/08/21 09:14:50;;;;;;;3.85;3.55;;;33.00;45.60;;;26.87;52.33;95667.31;4942227;28;20034;-53
2022/08/21 09:18:18;;;;;;;5.07;3.67;;;33.10;45.30;;;26.45;52.68;95662.72;4971830;28;20282;-51
2022/08/21 09:21:26;;;;;;;4.28;3.38;;;33.20;44.90;;;26.77;52.83;95665.22;4971785;28;20361;-49
2022/08/21 09:24:19;;;;;;;3.40;3.15;;;33.30;44.80;;;27.14;52.91;95657.19;4952560;28;20469;-48
2022/08/21 09:27:15;;;;;;;5.45;3.55;;;33.50;44.40;;;26.96;49.55;95654.16;4957794;28;20025;-53
2022/08/21 09:29:54;;;;;;;3.95;3.50;;;33.60;44.00;;;27.07;50.99;95664.47;4921333;28;20129;-54
2022/08/21 09:32:33;;;;;;;3.80;3.50;;;33.60;43.50;;;27.38;51.32;95657.88;4949336;28;20370;-50
2022/08/21 09:35:19;;;;;;;3.50;3.20;;;33.70;43.20;;;27.72;50.51;95657.91;4953048;28;20113;-57
2022/08/21 09:38:07;;;;;;;4.55;2.80;;;33.90;43.10;;;28.02;50.41;95655.16;4970403;28;20058;-50
2022/08/21 09:40:55;;;;;;;4.25;3.40;;;34.10;43.50;;;28.19;48.57;95651.78;4938012;28;20026;-52
2022/08/21 09:43:27;;;;;;;5.63;3.10;;;34.40;42.60;;;28.23;49.50;95651.81;4939397;28;20026;-53
2022/08/21 09:46:26;;;;;;;4.05;3.67;;;34.70;42.90;;;27.76;47.50;95645.06;4954008;28;20018;-50
2022/08/21 09:49:01;;;;;;;3.65;3.03;;;34.70;41.80;;;27.82;48.37;95641.63;4947071;28;20042;-52
2022/08/21 09:51:36;;;;;;;3.65;3.20;;;34.80;41.00;;;27.91;47.74;95638.59;4970919;28;20033;-55
2022/08/21 09:54:05;;;;;;;3.60;3.30;;;34.90;40.60;;;28.05;46.77;95636.03;4916002;29;20023;-47
2022/08/21 09:59:34;;;;;;;3.63;3.33;;;34.90;39.80;;;28.20;45.60;95638.88;4937854;29;20134;-49
2022/08/21 10:02:33;;;;;;;4.45;3.53;;;35.00;39.70;;;28.25;46.50;95633.06;4952439;28;20160;-50
2022/08/21 10:05:27;;;;;;;3.03;2.80;;;35.00;39.50;;;28.43;46.21;95628.56;4970410;28;20026;-50
2022/08/21 10:08:03;;;;;;;3.58;2.97;;;35.10;39.50;;;28.57;46.01;95622.41;4928567;28;20043;-48
2022/08/21 10:11:00;;;;;;;3.70;2.65;;;35.20;39.10;;;28.31;44.66;95626.09;4953909;28;20030;-51
2022/08/21 10:13:53;;;;;;;3.58;2.78;;;34.90;39.10;;;27.95;45.68;95620.25;4968344;28;20042;-48
2022/08/21 10:16:24;;;;;;;4.15;2.80;;;34.80;38.90;;;27.62;46.47;95616.38;4968045;28;20032;-47
2022/08/21 10:19:51;;;;;;;3.60;2.60;;;34.90;38.30;;;27.88;46.06;95617.47;4972109;28;20528;-49
2022/08/21 10:22:45;;;;;;;3.38;2.53;;;34.80;38.40;;;28.40;46.21;95618.38;4971277;28;20053;-53
2022/08/21 10:26:24;;;;;;;5.82;2.97;;;34.90;38.70;;;28.31;46.55;95612.38;4957465;28;20030;-52
2022/08/21 10:29:18;;;;;;;4.13;3.25;;;34.90;38.60;;;28.08;47.60;95618.84;4942033;28;20129;-49
2022/08/21 10:32:21;;;;;;;3.47;2.95;;;35.00;38.30;;;28.69;44.81;95616.63;4975207;28;20420;-54
2022/08/21 10:35:21;;;;;;;11.38;2.70;;;35.10;38.10;;;29.15;42.62;95618.91;4949335;28;20030;-52